sensor_id;sensor_type;location;lat;lon;timestamp;P1;durP1;ratioP1;P2;durP2;ratioP2
19836;SDS011;10079;55.740;37.662;2022-08-04T00:05:48;12.30;;;7.00;;
19836;SDS011;10079;55.740;37.662;2022-08-04T00:19:16;14.47;;;9.07;;
19836;SDS011;10079;55.740;37.662;2022-08-04T00:22:10;14.93;;;9.70;;
19836;SDS011;10079;55.740;37.662;2022-08-04T00:24:50;12.13;;;9.20;;
19836;SDS011;10079;55.740;37.662;2022-08-04T00:27:31;13.87;;;8.77;;
19836;SDS011;10079;55.740;37.662;2022-08-04T00:30:12;11.70;;;8.73;;
19836;SDS011;10079;55.740;37.662;2022-08-04T00:33:05;12.23;;;9.13;;
19836;SDS011;10079;55.740;37.662;2022-08-04T00:35:49;11.67;;;8.40;;
19836;SDS011;10079;55.740;37.662;2022-08-04T00:52:16;15.40;;;9.57;;
19836;SDS011;10079;55.740;37.662;2022-08-04T00:58:22;14.43;;;9.93;;
19836;SDS011;10079;55.740;37.662;2022-08-04T01:04:23;15.03;;;10.70;;
19836;SDS011;10079;55.740;37.662;2022-08-04T01:07:30;15.93;;;10.37;;
19836;SDS011;10079;55.740;37.662;2022-08-04T01:13:35;12.00;;;9.27;;
19836;SDS011;10079;55.740;37.662;2022-08-04T01:16:18;15.00;;;10.43;;
19836;SDS011;10079;55.740;37.662;2022-08-04T01:19:07;13.03;;;10.80;;
19836;SDS011;10079;55.740;37.662;2022-08-04T01:22:00;15.93;;;10.97;;
19836;SDS011;10079;55.740;37.662;2022-08-04T01:24:45;10.87;;;9.77;;
19836;SDS011;10079;55.740;37.662;2022-08-04T01:30:34;15.00;;;10.70;;
19836;SDS011;10079;55.740;37.662;2022-08-04T01:33:16;14.87;;;10.70;;
19836;SDS011;10079;55.740;37.662;2022-08-04T01:36:09;14.43;;;10.40;;
19836;SDS011;10079;55.740;37.662;2022-08-04T01:38:55;12.03;;;9.73;;
19836;SDS011;10079;55.740;37.662;2022-08-04T01:41:40;13.20;;;9.90;;
19836;SDS011;10079;55.740;37.662;2022-08-04T01:44:23;14.23;;;10.70;;
19836;SDS011;10079;55.740;37.662;2022-08-04T01:47:03;13.83;;;9.60;;
19836;SDS011;10079;55.740;37.662;2022-08-04T01:49:49;13.07;;;10.03;;
19836;SDS011;10079;55.740;37.662;2022-08-04T01:52:31;14.87;;;9.60;;
19836;SDS011;10079;55.740;37.662;2022-08-04T01:55:14;12.50;;;9.33;;
19836;SDS011;10079;55.740;37.662;2022-08-04T01:57:57;11.43;;;10.03;;
19836;SDS011;10079;55.740;37.662;2022-08-04T02:00:39;12.83;;;10.00;;
19836;SDS011;10079;55.740;37.662;2022-08-04T02:03:31;14.03;;;9.17;;
19836;SDS011;10079;55.740;37.662;2022-08-04T02:09:16;12.20;;;10.53;;
19836;SDS011;10079;55.740;37.662;2022-08-04T02:15:08;11.23;;;10.20;;
19836;SDS011;10079;55.740;37.662;2022-08-04T02:17:53;12.70;;;9.37;;
19836;SDS011;10079;55.740;37.662;2022-08-04T02:20:34;13.00;;;9.40;;
19836;SDS011;10079;55.740;37.662;2022-08-04T02:23:24;10.13;;;9.00;;
19836;SDS011;10079;55.740;37.662;2022-08-04T02:26:11;12.37;;;10.13;;
19836;SDS011;10079;55.740;37.662;2022-08-04T02:29:12;10.70;;;8.93;;
19836;SDS011;10079;55.740;37.662;2022-08-04T02:32:03;13.43;;;10.00;;
19836;SDS011;10079;55.740;37.662;2022-08-04T02:34:48;10.30;;;9.27;;
19836;SDS011;10079;55.740;37.662;2022-08-04T02:37:36;10.40;;;9.30;;
19836;SDS011;10079;55.740;37.662;2022-08-04T02:40:18;12.87;;;9.90;;
19836;SDS011;10079;55.740;37.662;2022-08-04T02:43:02;10.47;;;9.37;;
19836;SDS011;10079;55.740;37.662;2022-08-04T02:45:48;12.53;;;9.57;;
19836;SDS011;10079;55.740;37.662;2022-08-04T02:59:04;14.60;;;11.03;;
19836;SDS011;10079;55.740;37.662;2022-08-04T03:01:48;14.57;;;11.30;;
19836;SDS011;10079;55.740;37.662;2022-08-04T03:04:50;15.63;;;11.57;;
19836;SDS011;10079;55.740;37.662;2022-08-04T03:07:56;16.97;;;11.80;;
19836;SDS011;10079;55.740;37.662;2022-08-04T03:10:45;15.43;;;11.67;;
19836;SDS011;10079;55.740;37.662;2022-08-04T03:16:48;15.90;;;11.77;;
19836;SDS011;10079;55.740;37.662;2022-08-04T03:49:06;14.70;;;11.93;;
19836;SDS011;10079;55.740;37.662;2022-08-04T04:05:57;12.82;;;10.70;;
19836;SDS011;10079;55.740;37.662;2022-08-04T04:09:15;12.90;;;10.35;;
19836;SDS011;10079;55.740;37.662;2022-08-04T04:12:20;13.25;;;9.85;;
19836;SDS011;10079;55.740;37.662;2022-08-04T04:15:03;12.40;;;10.07;;
19836;SDS011;10079;55.740;37.662;2022-08-04T04:20:51;10.45;;;8.80;;
19836;SDS011;10079;55.740;37.662;2022-08-04T04:23:45;12.90;;;9.52;;
19836;SDS011;10079;55.740;37.662;2022-08-04T04:26:48;10.05;;;9.05;;
19836;SDS011;10079;55.740;37.662;2022-08-04T04:32:56;8.63;;;7.70;;
19836;SDS011;10079;55.740;37.662;2022-08-04T04:35:48;8.48;;;7.78;;
19836;SDS011;10079;55.740;37.662;2022-08-04T04:41:30;7.32;;;6.62;;
19836;SDS011;10079;55.740;37.662;2022-08-04T04:44:31;7.87;;;7.07;;
19836;SDS011;10079;55.740;37.662;2022-08-04T04:53:32;6.47;;;5.87;;
19836;SDS011;10079;55.740;37.662;2022-08-04T04:56:21;6.93;;;5.87;;
19836;SDS011;10079;55.740;37.662;2022-08-04T04:59:00;6.62;;;5.97;;
19836;SDS011;10079;55.740;37.662;2022-08-04T05:04:48;5.57;;;5.00;;
19836;SDS011;10079;55.740;37.662;2022-08-04T05:10:50;5.53;;;4.90;;
19836;SDS011;10079;55.740;37.662;2022-08-04T05:13:44;7.28;;;5.20;;
19836;SDS011;10079;55.740;37.662;2022-08-04T05:16:34;6.72;;;5.37;;
19836;SDS011;10079;55.740;37.662;2022-08-04T05:19:22;8.07;;;5.45;;
19836;SDS011;10079;55.740;37.662;2022-08-04T05:22:10;6.20;;;5.30;;
19836;SDS011;10079;55.740;37.662;2022-08-04T05:24:54;6.28;;;4.80;;
19836;SDS011;10079;55.740;37.662;2022-08-04T05:27:42;4.50;;;4.20;;
19836;SDS011;10079;55.740;37.662;2022-08-04T05:30:25;5.22;;;4.75;;
19836;SDS011;10079;55.740;37.662;2022-08-04T05:33:11;9.10;;;4.80;;
19836;SDS011;10079;55.740;37.662;2022-08-04T05:35:54;4.97;;;4.57;;
19836;SDS011;10079;55.740;37.662;2022-08-04T05:38:36;5.28;;;4.35;;
19836;SDS011;10079;55.740;37.662;2022-08-04T05:41:16;5.47;;;4.50;;
19836;SDS011;10079;55.740;37.662;2022-08-04T05:44:01;8.70;;;5.60;;
19836;SDS011;10079;55.740;37.662;2022-08-04T05:46:55;11.73;;;6.43;;
19836;SDS011;10079;55.740;37.662;2022-08-04T06:00:35;9.45;;;5.80;;
19836;SDS011;10079;55.740;37.662;2022-08-04T06:03:17;5.57;;;4.65;;
19836;SDS011;10079;55.740;37.662;2022-08-04T06:06:01;6.57;;;4.90;;
19836;SDS011;10079;55.740;37.662;2022-08-04T06:08:47;6.45;;;5.00;;
19836;SDS011;10079;55.740;37.662;2022-08-04T06:11:33;4.80;;;4.28;;
19836;SDS011;10079;55.740;37.662;2022-08-04T06:14:19;8.77;;;4.70;;
19836;SDS011;10079;55.740;37.662;2022-08-04T06:17:04;5.12;;;4.50;;
19836;SDS011;10079;55.740;37.662;2022-08-04T06:19:51;6.20;;;4.85;;
19836;SDS011;10079;55.740;37.662;2022-08-04T06:22:40;5.50;;;3.87;;
19836;SDS011;10079;55.740;37.662;2022-08-04T06:25:27;7.45;;;4.55;;
19836;SDS011;10079;55.740;37.662;2022-08-04T06:28:13;9.00;;;4.95;;
19836;SDS011;10079;55.740;37.662;2022-08-04T06:30:58;4.10;;;3.70;;
19836;SDS011;10079;55.740;37.662;2022-08-04T06:33:42;5.93;;;3.90;;
19836;SDS011;10079;55.740;37.662;2022-08-04T06:36:26;5.03;;;4.25;;
19836;SDS011;10079;55.740;37.662;2022-08-04T06:49:54;4.57;;;4.15;;
19836;SDS011;10079;55.740;37.662;2022-08-04T06:52:37;5.65;;;3.72;;
19836;SDS011;10079;55.740;37.662;2022-08-04T06:55:30;5.43;;;3.55;;
19836;SDS011;10079;55.740;37.662;2022-08-04T06:58:15;4.65;;;4.10;;
19836;SDS011;10079;55.740;37.662;2022-08-04T07:00:58;6.18;;;3.62;;
19836;SDS011;10079;55.740;37.662;2022-08-04T07:03:39;4.47;;;3.20;;
19836;SDS011;10079;55.740;37.662;2022-08-04T07:06:21;3.65;;;3.40;;
19836;SDS011;10079;55.740;37.662;2022-08-04T07:09:03;3.75;;;3.47;;
19836;SDS011;10079;55.740;37.662;2022-08-04T07:11:44;5.30;;;3.92;;
19836;SDS011;10079;55.740;37.662;2022-08-04T07:14:25;3.90;;;3.60;;
19836;SDS011;10079;55.740;37.662;2022-08-04T07:17:07;3.80;;;3.50;;
19836;SDS011;10079;55.740;37.662;2022-08-04T07:20:03;4.22;;;3.92;;
19836;SDS011;10079;55.740;37.662;2022-08-04T07:33:09;4.55;;;3.70;;
19836;SDS011;10079;55.740;37.662;2022-08-04T07:36:00;4.87;;;3.95;;
19836;SDS011;10079;55.740;37.662;2022-08-04T07:38:45;4.10;;;3.80;;
19836;SDS011;10079;55.740;37.662;2022-08-04T07:41:26;4.22;;;3.90;;
19836;SDS011;10079;55.740;37.662;2022-08-04T07:44:11;4.07;;;3.78;;
19836;SDS011;10079;55.740;37.662;2022-08-04T07:46:51;4.47;;;3.60;;
19836;SDS011;10079;55.740;37.662;2022-08-04T07:49:33;4.00;;;3.55;;
19836;SDS011;10079;55.740;37.662;2022-08-04T07:52:15;3.95;;;3.55;;
19836;SDS011;10079;55.740;37.662;2022-08-04T07:54:55;6.55;;;3.33;;
19836;SDS011;10079;55.740;37.662;2022-08-04T07:57:42;4.10;;;3.72;;
19836;SDS011;10079;55.740;37.662;2022-08-04T08:00:27;4.07;;;3.17;;
19836;SDS011;10079;55.740;37.662;2022-08-04T08:03:11;4.43;;;3.40;;
19836;SDS011;10079;55.740;37.662;2022-08-04T08:05:54;6.05;;;3.70;;
19836;SDS011;10079;55.740;37.662;2022-08-04T08:08:41;4.28;;;3.90;;
19836;SDS011;10079;55.740;37.662;2022-08-04T08:11:26;4.45;;;3.90;;
19836;SDS011;10079;55.740;37.662;2022-08-04T08:14:08;3.78;;;3.47;;
19836;SDS011;10079;55.740;37.662;2022-08-04T08:16:54;3.95;;;3.60;;
19836;SDS011;10079;55.740;37.662;2022-08-04T08:19:38;4.30;;;3.90;;
19836;SDS011;10079;55.740;37.662;2022-08-04T08:22:20;4.03;;;3.72;;
19836;SDS011;10079;55.740;37.662;2022-08-04T08:25:02;4.07;;;3.60;;
19836;SDS011;10079;55.740;37.662;2022-08-04T08:27:43;5.05;;;3.72;;
19836;SDS011;10079;55.740;37.662;2022-08-04T08:30:27;3.92;;;3.62;;
19836;SDS011;10079;55.740;37.662;2022-08-04T08:33:10;5.40;;;4.10;;
19836;SDS011;10079;55.740;37.662;2022-08-04T08:35:52;3.72;;;3.53;;
19836;SDS011;10079;55.740;37.662;2022-08-04T08:38:49;4.37;;;3.97;;
19836;SDS011;10079;55.740;37.662;2022-08-04T08:55:57;4.60;;;4.28;;
19836;SDS011;10079;55.740;37.662;2022-08-04T09:09:40;5.22;;;4.72;;
19836;SDS011;10079;55.740;37.662;2022-08-04T09:23:17;4.80;;;4.30;;
19836;SDS011;10079;55.740;37.662;2022-08-04T09:26:08;5.40;;;4.43;;
19836;SDS011;10079;55.740;37.662;2022-08-04T09:28:58;5.78;;;4.50;;
19836;SDS011;10079;55.740;37.662;2022-08-04T09:34:56;5.43;;;4.93;;
19836;SDS011;10079;55.740;37.662;2022-08-04T09:37:44;6.40;;;5.10;;
19836;SDS011;10079;55.740;37.662;2022-08-04T09:40:33;6.12;;;5.53;;
19836;SDS011;10079;55.740;37.662;2022-08-04T09:46:32;5.45;;;5.05;;
19836;SDS011;10079;55.740;37.662;2022-08-04T09:49:22;5.87;;;5.37;;
19836;SDS011;10079;55.740;37.662;2022-08-04T09:52:10;5.70;;;4.97;;
19836;SDS011;10079;55.740;37.662;2022-08-04T10:05:25;5.75;;;4.93;;
19836;SDS011;10079;55.740;37.662;2022-08-04T10:08:20;7.45;;;5.68;;
19836;SDS011;10079;55.740;37.662;2022-08-04T10:13:56;7.37;;;5.72;;
19836;SDS011;10079;55.740;37.662;2022-08-04T10:16:52;6.22;;;5.62;;
19836;SDS011;10079;55.740;37.662;2022-08-04T10:19:49;7.05;;;6.05;;
19836;SDS011;10079;55.740;37.662;2022-08-04T10:22:37;6.80;;;5.50;;
19836;SDS011;10079;55.740;37.662;2022-08-04T10:36:00;6.78;;;6.07;;
19836;SDS011;10079;55.740;37.662;2022-08-04T10:39:02;7.93;;;6.05;;
19836;SDS011;10079;55.740;37.662;2022-08-04T10:41:51;7.15;;;5.80;;
19836;SDS011;10079;55.740;37.662;2022-08-04T10:44:54;6.37;;;5.82;;
19836;SDS011;10079;55.740;37.662;2022-08-04T10:47:37;6.75;;;6.15;;
19836;SDS011;10079;55.740;37.662;2022-08-04T10:50:20;8.55;;;6.28;;
19836;SDS011;10079;55.740;37.662;2022-08-04T10:53:06;7.07;;;6.35;;
19836;SDS011;10079;55.740;37.662;2022-08-04T10:55:51;7.62;;;6.50;;
19836;SDS011;10079;55.740;37.662;2022-08-04T10:58:52;6.85;;;5.80;;
19836;SDS011;10079;55.740;37.662;2022-08-04T11:01:38;7.12;;;6.45;;
19836;SDS011;10079;55.740;37.662;2022-08-04T11:04:40;8.88;;;6.35;;
19836;SDS011;10079;55.740;37.662;2022-08-04T11:07:21;7.15;;;6.50;;
19836;SDS011;10079;55.740;37.662;2022-08-04T11:10:02;7.50;;;5.95;;
19836;SDS011;10079;55.740;37.662;2022-08-04T11:12:45;7.32;;;6.18;;
19836;SDS011;10079;55.740;37.662;2022-08-04T11:15:37;7.10;;;6.37;;
19836;SDS011;10079;55.740;37.662;2022-08-04T11:18:27;7.07;;;6.37;;
19836;SDS011;10079;55.740;37.662;2022-08-04T11:21:24;7.32;;;6.35;;
19836;SDS011;10079;55.740;37.662;2022-08-04T11:24:10;8.85;;;6.05;;
19836;SDS011;10079;55.740;37.662;2022-08-04T11:27:24;8.48;;;6.37;;
19836;SDS011;10079;55.740;37.662;2022-08-04T11:30:08;7.12;;;6.50;;
19836;SDS011;10079;55.740;37.662;2022-08-04T11:33:00;7.87;;;6.75;;
19836;SDS011;10079;55.740;37.662;2022-08-04T11:35:43;8.07;;;6.80;;
19836;SDS011;10079;55.740;37.662;2022-08-04T11:38:30;7.22;;;6.47;;
19836;SDS011;10079;55.740;37.662;2022-08-04T11:41:32;7.20;;;6.50;;
19836;SDS011;10079;55.740;37.662;2022-08-04T11:44:17;7.85;;;6.05;;
19836;SDS011;10079;55.740;37.662;2022-08-04T11:57:56;8.95;;;6.45;;
19836;SDS011;10079;55.740;37.662;2022-08-04T12:22:04;9.77;;;7.72;;
19836;SDS011;10079;55.740;37.662;2022-08-04T12:25:04;9.73;;;7.95;;
19836;SDS011;10079;55.740;37.662;2022-08-04T12:27:50;7.57;;;6.87;;
19836;SDS011;10079;55.740;37.662;2022-08-04T12:30:33;8.05;;;6.95;;
19836;SDS011;10079;55.740;37.662;2022-08-04T12:44:03;9.00;;;7.68;;
19836;SDS011;10079;55.740;37.662;2022-08-04T12:57:29;9.77;;;8.77;;
19836;SDS011;10079;55.740;37.662;2022-08-04T13:03:14;9.68;;;8.25;;
19836;SDS011;10079;55.740;37.662;2022-08-04T13:06:02;10.45;;;8.00;;
19836;SDS011;10079;55.740;37.662;2022-08-04T13:08:44;16.87;;;8.95;;
19836;SDS011;10079;55.740;37.662;2022-08-04T13:11:24;12.95;;;8.43;;
19836;SDS011;10079;55.740;37.662;2022-08-04T13:14:09;13.00;;;8.90;;
19836;SDS011;10079;55.740;37.662;2022-08-04T13:16:56;10.88;;;9.05;;
19836;SDS011;10079;55.740;37.662;2022-08-04T13:19:38;9.63;;;8.63;;
19836;SDS011;10079;55.740;37.662;2022-08-04T13:22:24;10.88;;;9.20;;
19836;SDS011;10079;55.740;37.662;2022-08-04T13:25:07;10.13;;;8.35;;
19836;SDS011;10079;55.740;37.662;2022-08-04T13:27:52;10.90;;;8.10;;
19836;SDS011;10079;55.740;37.662;2022-08-04T13:30:32;12.15;;;9.05;;
19836;SDS011;10079;55.740;37.662;2022-08-04T13:33:14;9.50;;;8.00;;
19836;SDS011;10079;55.740;37.662;2022-08-04T13:35:55;10.82;;;8.45;;
19836;SDS011;10079;55.740;37.662;2022-08-04T13:38:37;9.40;;;8.40;;
19836;SDS011;10079;55.740;37.662;2022-08-04T13:41:18;9.65;;;8.55;;
19836;SDS011;10079;55.740;37.662;2022-08-04T13:54:38;8.52;;;7.70;;
19836;SDS011;10079;55.740;37.662;2022-08-04T13:57:22;10.35;;;8.00;;
19836;SDS011;10079;55.740;37.662;2022-08-04T14:00:06;10.40;;;8.00;;
19836;SDS011;10079;55.740;37.662;2022-08-04T14:02:56;9.02;;;8.13;;
19836;SDS011;10079;55.740;37.662;2022-08-04T14:05:32;9.55;;;8.18;;
19836;SDS011;10079;55.740;37.662;2022-08-04T14:08:22;10.35;;;7.78;;
19836;SDS011;10079;55.740;37.662;2022-08-04T14:11:03;10.90;;;8.40;;
19836;SDS011;10079;55.740;37.662;2022-08-04T14:13:47;9.55;;;8.40;;
19836;SDS011;10079;55.740;37.662;2022-08-04T14:16:28;9.50;;;7.95;;
19836;SDS011;10079;55.740;37.662;2022-08-04T14:19:10;9.80;;;8.15;;
19836;SDS011;10079;55.740;37.662;2022-08-04T14:21:54;9.35;;;8.43;;
19836;SDS011;10079;55.740;37.662;2022-08-04T14:24:34;9.48;;;8.57;;
19836;SDS011;10079;55.740;37.662;2022-08-04T14:27:16;10.18;;;9.18;;
19836;SDS011;10079;55.740;37.662;2022-08-04T14:30:06;11.00;;;9.15;;
19836;SDS011;10079;55.740;37.662;2022-08-04T14:32:53;11.98;;;8.73;;
19836;SDS011;10079;55.740;37.662;2022-08-04T14:35:35;9.77;;;8.40;;
19836;SDS011;10079;55.740;37.662;2022-08-04T14:38:15;10.38;;;9.38;;
19836;SDS011;10079;55.740;37.662;2022-08-04T14:40:59;10.57;;;9.55;;
19836;SDS011;10079;55.740;37.662;2022-08-04T14:43:42;10.98;;;9.43;;
19836;SDS011;10079;55.740;37.662;2022-08-04T14:46:22;10.60;;;9.57;;
19836;SDS011;10079;55.740;37.662;2022-08-04T14:49:08;9.15;;;8.25;;
19836;SDS011;10079;55.740;37.662;2022-08-04T14:51:53;11.90;;;9.60;;
19836;SDS011;10079;55.740;37.662;2022-08-04T14:54:37;12.50;;;9.07;;
19836;SDS011;10079;55.740;37.662;2022-08-04T14:57:27;10.90;;;9.50;;
19836;SDS011;10079;55.740;37.662;2022-08-04T15:00:08;10.57;;;9.07;;
19836;SDS011;10079;55.740;37.662;2022-08-04T15:07:59;9.75;;;8.75;;
19836;SDS011;10079;55.740;37.662;2022-08-04T15:21:14;11.75;;;10.45;;
19836;SDS011;10079;55.740;37.662;2022-08-04T15:24:08;12.75;;;10.15;;
19836;SDS011;10079;55.740;37.662;2022-08-04T15:27:00;13.05;;;10.20;;
19836;SDS011;10079;55.740;37.662;2022-08-04T15:29:45;12.48;;;10.63;;
19836;SDS011;10079;55.740;37.662;2022-08-04T15:32:36;13.00;;;10.10;;
19836;SDS011;10079;55.740;37.662;2022-08-04T15:35:19;17.75;;;9.95;;
19836;SDS011;10079;55.740;37.662;2022-08-04T15:38:02;11.48;;;10.10;;
19836;SDS011;10079;55.740;37.662;2022-08-04T15:40:51;12.98;;;10.55;;
19836;SDS011;10079;55.740;37.662;2022-08-04T15:43:43;13.70;;;10.65;;
19836;SDS011;10079;55.740;37.662;2022-08-04T15:50:12;12.80;;;10.13;;
19836;SDS011;10079;55.740;37.662;2022-08-04T15:52:59;11.07;;;9.80;;
19836;SDS011;10079;55.740;37.662;2022-08-04T15:55:42;12.68;;;10.02;;
19836;SDS011;10079;55.740;37.662;2022-08-04T15:58:27;12.02;;;9.65;;
19836;SDS011;10079;55.740;37.662;2022-08-04T16:01:13;11.07;;;9.77;;
19836;SDS011;10079;55.740;37.662;2022-08-04T16:03:54;14.07;;;10.63;;
19836;SDS011;10079;55.740;37.662;2022-08-04T16:06:43;11.82;;;10.15;;
19836;SDS011;10079;55.740;37.662;2022-08-04T16:20:01;12.85;;;11.50;;
19836;SDS011;10079;55.740;37.662;2022-08-04T16:22:42;13.00;;;10.90;;
19836;SDS011;10079;55.740;37.662;2022-08-04T16:31:10;14.93;;;11.18;;
19836;SDS011;10079;55.740;37.662;2022-08-04T16:33:58;12.48;;;11.27;;
19836;SDS011;10079;55.740;37.662;2022-08-04T16:39:33;14.07;;;11.32;;
19836;SDS011;10079;55.740;37.662;2022-08-04T16:45:21;15.52;;;12.60;;
19836;SDS011;10079;55.740;37.662;2022-08-04T16:48:14;15.07;;;11.60;;
19836;SDS011;10079;55.740;37.662;2022-08-04T16:50:55;13.90;;;12.15;;
19836;SDS011;10079;55.740;37.662;2022-08-04T16:53:36;15.30;;;11.57;;
19836;SDS011;10079;55.740;37.662;2022-08-04T16:56:16;14.57;;;11.32;;
19836;SDS011;10079;55.740;37.662;2022-08-04T16:59:05;20.45;;;11.30;;
19836;SDS011;10079;55.740;37.662;2022-08-04T17:01:47;15.73;;;10.77;;
19836;SDS011;10079;55.740;37.662;2022-08-04T17:04:29;12.35;;;11.05;;
19836;SDS011;10079;55.740;37.662;2022-08-04T17:07:10;14.75;;;12.02;;
19836;SDS011;10079;55.740;37.662;2022-08-04T17:09:54;13.77;;;10.85;;
19836;SDS011;10079;55.740;37.662;2022-08-04T17:12:37;16.62;;;10.88;;
19836;SDS011;10079;55.740;37.662;2022-08-04T17:15:22;15.52;;;11.12;;
19836;SDS011;10079;55.740;37.662;2022-08-04T17:18:12;14.60;;;11.65;;
19836;SDS011;10079;55.740;37.662;2022-08-04T17:20:54;13.35;;;11.73;;
19836;SDS011;10079;55.740;37.662;2022-08-04T17:23:39;12.63;;;11.35;;
19836;SDS011;10079;55.740;37.662;2022-08-04T17:26:29;17.52;;;11.50;;
19836;SDS011;10079;55.740;37.662;2022-08-04T17:29:15;18.25;;;11.75;;
19836;SDS011;10079;55.740;37.662;2022-08-04T17:31:56;15.57;;;12.37;;
19836;SDS011;10079;55.740;37.662;2022-08-04T17:34:37;16.92;;;11.00;;
19836;SDS011;10079;55.740;37.662;2022-08-04T17:37:18;16.08;;;11.23;;
19836;SDS011;10079;55.740;37.662;2022-08-04T17:40:04;15.52;;;11.50;;
19836;SDS011;10079;55.740;37.662;2022-08-04T17:42:48;12.73;;;10.77;;
19836;SDS011;10079;55.740;37.662;2022-08-04T17:45:28;11.85;;;10.55;;
19836;SDS011;10079;55.740;37.662;2022-08-04T17:48:17;12.50;;;11.20;;
19836;SDS011;10079;55.740;37.662;2022-08-04T17:51:14;14.85;;;10.57;;
19836;SDS011;10079;55.740;37.662;2022-08-04T17:54:04;13.50;;;11.55;;
19836;SDS011;10079;55.740;37.662;2022-08-04T18:07:33;15.55;;;11.80;;
19836;SDS011;10079;55.740;37.662;2022-08-04T18:13:25;15.52;;;11.68;;
19836;SDS011;10079;55.740;37.662;2022-08-04T18:16:09;15.40;;;11.38;;
19836;SDS011;10079;55.740;37.662;2022-08-04T18:19:07;15.48;;;12.45;;
19836;SDS011;10079;55.740;37.662;2022-08-04T18:21:58;16.20;;;11.38;;
19836;SDS011;10079;55.740;37.662;2022-08-04T18:24:42;14.90;;;12.37;;
19836;SDS011;10079;55.740;37.662;2022-08-04T18:27:26;17.33;;;12.30;;
19836;SDS011;10079;55.740;37.662;2022-08-04T18:30:14;15.68;;;12.02;;
19836;SDS011;10079;55.740;37.662;2022-08-04T18:33:07;17.80;;;13.05;;
19836;SDS011;10079;55.740;37.662;2022-08-04T18:36:00;16.15;;;12.45;;
19836;SDS011;10079;55.740;37.662;2022-08-04T18:38:40;17.73;;;12.57;;
19836;SDS011;10079;55.740;37.662;2022-08-04T18:41:26;18.02;;;12.32;;
19836;SDS011;10079;55.740;37.662;2022-08-04T18:44:10;20.62;;;12.90;;
19836;SDS011;10079;55.740;37.662;2022-08-04T18:46:55;20.17;;;14.07;;
19836;SDS011;10079;55.740;37.662;2022-08-04T18:49:36;22.52;;;12.32;;
19836;SDS011;10079;55.740;37.662;2022-08-04T18:52:20;20.25;;;13.38;;
19836;SDS011;10079;55.740;37.662;2022-08-04T18:55:04;18.08;;;13.02;;
19836;SDS011;10079;55.740;37.662;2022-08-04T18:57:54;24.48;;;13.10;;
19836;SDS011;10079;55.740;37.662;2022-08-04T19:00:43;20.08;;;13.50;;
19836;SDS011;10079;55.740;37.662;2022-08-04T19:03:32;21.42;;;13.20;;
19836;SDS011;10079;55.740;37.662;2022-08-04T19:06:17;19.42;;;13.48;;
19836;SDS011;10079;55.740;37.662;2022-08-04T19:09:02;17.80;;;12.68;;
19836;SDS011;10079;55.740;37.662;2022-08-04T19:11:45;19.58;;;13.15;;
19836;SDS011;10079;55.740;37.662;2022-08-04T19:14:26;23.30;;;13.02;;
19836;SDS011;10079;55.740;37.662;2022-08-04T19:17:07;25.12;;;13.95;;
19836;SDS011;10079;55.740;37.662;2022-08-04T19:19:47;22.05;;;12.70;;
19836;SDS011;10079;55.740;37.662;2022-08-04T19:22:28;18.27;;;13.35;;
19836;SDS011;10079;55.740;37.662;2022-08-04T19:25:12;21.42;;;13.55;;
19836;SDS011;10079;55.740;37.662;2022-08-04T19:27:53;19.10;;;12.63;;
19836;SDS011;10079;55.740;37.662;2022-08-04T19:30:43;20.08;;;13.07;;
19836;SDS011;10079;55.740;37.662;2022-08-04T19:33:23;22.60;;;12.82;;
19836;SDS011;10079;55.740;37.662;2022-08-04T19:36:08;18.60;;;11.98;;
19836;SDS011;10079;55.740;37.662;2022-08-04T19:38:52;20.15;;;12.68;;
19836;SDS011;10079;55.740;37.662;2022-08-04T19:41:37;15.50;;;11.93;;
19836;SDS011;10079;55.740;37.662;2022-08-04T19:44:19;18.70;;;12.18;;
19836;SDS011;10079;55.740;37.662;2022-08-04T19:47:08;19.33;;;11.60;;
19836;SDS011;10079;55.740;37.662;2022-08-04T19:49:50;18.60;;;12.00;;
19836;SDS011;10079;55.740;37.662;2022-08-04T19:52:34;19.62;;;11.48;;
19836;SDS011;10079;55.740;37.662;2022-08-04T19:55:15;21.58;;;11.15;;
19836;SDS011;10079;55.740;37.662;2022-08-04T19:58:08;19.27;;;11.98;;
19836;SDS011;10079;55.740;37.662;2022-08-04T20:00:49;20.35;;;11.85;;
19836;SDS011;10079;55.740;37.662;2022-08-04T20:03:30;15.20;;;11.27;;
19836;SDS011;10079;55.740;37.662;2022-08-04T20:06:11;14.32;;;11.90;;
19836;SDS011;10079;55.740;37.662;2022-08-04T20:08:52;15.05;;;11.57;;
19836;SDS011;10079;55.740;37.662;2022-08-04T20:11:33;17.00;;;12.23;;
19836;SDS011;10079;55.740;37.662;2022-08-04T20:14:15;23.17;;;12.77;;
19836;SDS011;10079;55.740;37.662;2022-08-04T20:17:00;20.55;;;12.23;;
19836;SDS011;10079;55.740;37.662;2022-08-04T20:19:45;20.45;;;12.15;;
19836;SDS011;10079;55.740;37.662;2022-08-04T20:33:01;18.62;;;13.45;;
19836;SDS011;10079;55.740;37.662;2022-08-04T20:35:45;18.15;;;13.15;;
19836;SDS011;10079;55.740;37.662;2022-08-04T20:38:26;18.58;;;12.73;;
19836;SDS011;10079;55.740;37.662;2022-08-04T20:41:07;17.23;;;12.63;;
19836;SDS011;10079;55.740;37.662;2022-08-04T20:43:48;21.17;;;13.18;;
19836;SDS011;10079;55.740;37.662;2022-08-04T20:46:29;19.08;;;13.23;;
19836;SDS011;10079;55.740;37.662;2022-08-04T20:49:19;19.73;;;13.88;;
19836;SDS011;10079;55.740;37.662;2022-08-04T20:52:00;18.80;;;12.60;;
19836;SDS011;10079;55.740;37.662;2022-08-04T20:54:41;24.12;;;14.30;;
19836;SDS011;10079;55.740;37.662;2022-08-04T20:57:25;21.70;;;13.38;;
19836;SDS011;10079;55.740;37.662;2022-08-04T21:10:45;20.35;;;14.02;;
19836;SDS011;10079;55.740;37.662;2022-08-04T21:13:26;20.62;;;14.15;;
19836;SDS011;10079;55.740;37.662;2022-08-04T21:26:54;18.25;;;14.27;;
19836;SDS011;10079;55.740;37.662;2022-08-04T21:29:34;16.37;;;13.25;;
19836;SDS011;10079;55.740;37.662;2022-08-04T21:32:27;19.25;;;13.82;;
19836;SDS011;10079;55.740;37.662;2022-08-04T21:35:19;16.77;;;13.15;;
19836;SDS011;10079;55.740;37.662;2022-08-04T21:38:12;20.27;;;14.23;;
19836;SDS011;10079;55.740;37.662;2022-08-04T21:51:38;20.98;;;14.68;;
19836;SDS011;10079;55.740;37.662;2022-08-04T21:54:33;19.52;;;14.70;;
19836;SDS011;10079;55.740;37.662;2022-08-04T21:57:17;19.55;;;14.48;;
19836;SDS011;10079;55.740;37.662;2022-08-04T22:00:07;18.73;;;13.88;;
19836;SDS011;10079;55.740;37.662;2022-08-04T22:02:49;19.58;;;14.75;;
19836;SDS011;10079;55.740;37.662;2022-08-04T22:05:33;19.27;;;14.15;;
19836;SDS011;10079;55.740;37.662;2022-08-04T22:08:15;19.07;;;14.23;;
19836;SDS011;10079;55.740;37.662;2022-08-04T22:10:59;18.98;;;14.87;;
19836;SDS011;10079;55.740;37.662;2022-08-04T22:13:40;20.77;;;14.87;;
19836;SDS011;10079;55.740;37.662;2022-08-04T22:16:32;18.58;;;14.68;;
19836;SDS011;10079;55.740;37.662;2022-08-04T22:19:22;19.75;;;15.32;;
19836;SDS011;10079;55.740;37.662;2022-08-04T22:22:03;22.60;;;14.93;;
19836;SDS011;10079;55.740;37.662;2022-08-04T22:24:47;20.00;;;14.90;;
19836;SDS011;10079;55.740;37.662;2022-08-04T22:27:29;20.05;;;15.50;;
19836;SDS011;10079;55.740;37.662;2022-08-04T22:30:11;20.40;;;15.02;;
19836;SDS011;10079;55.740;37.662;2022-08-04T22:32:53;20.45;;;15.90;;
19836;SDS011;10079;55.740;37.662;2022-08-04T22:35:34;22.40;;;16.37;;
19836;SDS011;10079;55.740;37.662;2022-08-04T22:38:18;22.37;;;14.67;;
19836;SDS011;10079;55.740;37.662;2022-08-04T22:41:04;18.93;;;14.77;;